createdAt,value
2023-01-11T11:12:45.923Z,24.50
2023-01-11T11:13:45.207Z,24.50
2023-01-11T11:14:46.426Z,24.51
2023-01-11T11:15:44.955Z,24.49
2023-01-11T11:16:44.905Z,24.50
2023-01-11T11:17:44.723Z,24.51
2023-01-11T11:18:44.568Z,24.51
2023-01-11T11:19:44.380Z,24.53
2023-01-11T11:20:44.327Z,24.53
2023-01-11T11:21:44.202Z,24.68
2023-01-11T11:22:44.108Z,24.76
2023-01-11T11:23:43.746Z,24.87
2023-01-11T11:24:43.551Z,24.96
2023-01-11T11:25:43.553Z,25.02
2023-01-11T11:26:43.215Z,25.07
2023-01-11T11:27:43.028Z,25.10
2023-01-11T11:28:42.846Z,25.14
2023-01-11T11:29:42.693Z,25.14
2023-01-11T11:30:42.531Z,25.11
2023-01-11T11:31:42.879Z,25.08
2023-01-11T11:32:42.164Z,25.08
2023-01-11T11:33:41.969Z,25.31
2023-01-11T11:34:41.786Z,25.43
2023-01-11T11:35:41.604Z,25.35
2023-01-11T11:36:41.425Z,25.31
2023-01-11T11:37:41.217Z,25.22
2023-01-11T11:38:41.046Z,25.18
2023-01-11T11:39:40.903Z,25.16
2023-01-11T11:40:40.683Z,25.16
2023-01-11T11:41:40.515Z,25.20
2023-01-11T11:42:40.316Z,25.23
2023-01-11T11:43:40.171Z,25.23
2023-01-11T11:44:40.943Z,25.25
2023-01-11T11:45:39.866Z,25.26
2023-01-11T11:46:39.650Z,25.27
2023-01-11T11:47:39.431Z,25.27
2023-01-11T11:48:39.229Z,25.28
2023-01-11T11:49:39.030Z,25.27
2023-01-11T11:50:45.907Z,25.17
2023-01-11T11:51:39.773Z,25.10
2023-01-11T11:52:38.569Z,25.05
2023-01-11T11:53:38.369Z,25.02
2023-01-11T11:54:52.003Z,25.04
